sensor_id;sensor_type;location;lat;lon;timestamp;pressure;altitude;pressure_sealevel;temperature;humidity
56182;BME280;51963;46.052;14.544;2023-01-28T00:01:15;98252.34;;;-0.43;100.00
56182;BME280;51963;46.052;14.544;2023-01-28T00:03:41;98251.88;;;-0.49;100.00
56182;BME280;51963;46.052;14.544;2023-01-28T00:06:15;98253.78;;;-0.51;100.00
56182;BME280;51963;46.052;14.544;2023-01-28T00:08:42;98251.41;;;-0.54;100.00
56182;BME280;51963;46.052;14.544;2023-01-28T00:11:08;98254.25;;;-0.57;100.00
56182;BME280;51963;46.052;14.544;2023-01-28T00:13:34;98250.47;;;-0.53;100.00
56182;BME280;51963;46.052;14.544;2023-01-28T00:16:01;98246.94;;;-0.52;100.00
56182;BME280;51963;46.052;14.544;2023-01-28T00:18:27;98253.78;;;-0.51;100.00
56182;BME280;51963;46.052;14.544;2023-01-28T00:21:06;98254.00;;;-0.54;100.00
56182;BME280;51963;46.052;14.544;2023-01-28T00:23:33;98264.41;;;-0.54;100.00
56182;BME280;51963;46.052;14.544;2023-01-28T00:26:00;98269.97;;;-0.58;100.00
56182;BME280;51963;46.052;14.544;2023-01-28T00:28:25;98263.69;;;-0.56;100.00
56182;BME280;51963;46.052;14.544;2023-01-28T00:30:51;98260.16;;;-0.55;100.00
56182;BME280;51963;46.052;14.544;2023-01-28T00:33:17;98267.00;;;-0.54;100.00
56182;BME280;51963;46.052;14.544;2023-01-28T00:35:42;98262.75;;;-0.55;100.00
56182;BME280;51963;46.052;14.544;2023-01-28T00:38:08;98266.75;;;-0.62;100.00
56182;BME280;51963;46.052;14.544;2023-01-28T00:40:34;98273.84;;;-0.64;100.00
56182;BME280;51963;46.052;14.544;2023-01-28T00:43:00;98274.69;;;-0.64;100.00
56182;BME280;51963;46.052;14.544;2023-01-28T00:45:25;98269.84;;;-0.68;100.00
56182;BME280;51963;46.052;14.544;2023-01-28T00:47:53;98280.47;;;-0.71;100.00
56182;BME280;51963;46.052;14.544;2023-01-28T00:50:18;98280.47;;;-0.71;100.00
56182;BME280;51963;46.052;14.544;2023-01-28T00:52:46;98279.41;;;-0.69;100.00
56182;BME280;51963;46.052;14.544;2023-01-28T00:55:11;98286.34;;;-0.69;100.00
56182;BME280;51963;46.052;14.544;2023-01-28T00:57:37;98290.75;;;-0.70;100.00
56182;BME280;51963;46.052;14.544;2023-01-28T01:00:03;98290.38;;;-0.65;100.00
56182;BME280;51963;46.052;14.544;2023-01-28T01:02:29;98290.13;;;-0.62;100.00
56182;BME280;51963;46.052;14.544;2023-01-28T01:04:55;98288.16;;;-0.58;100.00
56182;BME280;51963;46.052;14.544;2023-01-28T01:07:26;98285.41;;;-0.57;100.00
56182;BME280;51963;46.052;14.544;2023-01-28T01:10:09;98286.84;;;-0.64;100.00
56182;BME280;51963;46.052;14.544;2023-01-28T01:12:36;98285.88;;;-0.63;100.00
56182;BME280;51963;46.052;14.544;2023-01-28T01:15:02;98290.13;;;-0.62;100.00
56182;BME280;51963;46.052;14.544;2023-01-28T01:17:29;98294.63;;;-0.64;100.00
56182;BME280;51963;46.052;14.544;2023-01-28T01:19:55;98289.44;;;-0.64;100.00
56182;BME280;51963;46.052;14.544;2023-01-28T01:22:21;98292.97;;;-0.65;100.00
56182;BME280;51963;46.052;14.544;2023-01-28T01:24:46;98296.28;;;-0.63;100.00
56182;BME280;51963;46.052;14.544;2023-01-28T01:27:13;98292.72;;;-0.62;100.00
56182;BME280;51963;46.052;14.544;2023-01-28T01:29:39;98295.81;;;-0.57;100.00
56182;BME280;51963;46.052;14.544;2023-01-28T01:32:05;98299.94;;;-0.54;100.00
56182;BME280;51963;46.052;14.544;2023-01-28T01:34:31;98301.59;;;-0.53;100.00
56182;BME280;51963;46.052;14.544;2023-01-28T01:36:56;98314.22;;;-0.49;100.00
56182;BME280;51963;46.052;14.544;2023-01-28T01:39:22;98304.06;;;-0.52;100.00
56182;BME280;51963;46.052;14.544;2023-01-28T01:41:48;98311.13;;;-0.42;100.00
56182;BME280;51963;46.052;14.544;2023-01-28T01:46:57;98303.81;;;-0.49;100.00
56182;BME280;51963;46.052;14.544;2023-01-28T01:49:24;98307.38;;;-0.50;100.00
56182;BME280;51963;46.052;14.544;2023-01-28T01:51:51;98306.78;;;-0.53;100.00
56182;BME280;51963;46.052;14.544;2023-01-28T01:54:19;98310.91;;;-0.51;100.00
56182;BME280;51963;46.052;14.544;2023-01-28T01:56:47;98317.06;;;-0.52;100.00
56182;BME280;51963;46.052;14.544;2023-01-28T01:59:17;98317.06;;;-0.52;100.00
56182;BME280;51963;46.052;14.544;2023-01-28T02:01:46;98310.81;;;-0.49;100.00
56182;BME280;51963;46.052;14.544;2023-01-28T02:04:18;98319.31;;;-0.47;100.00
56182;BME280;51963;46.052;14.544;2023-01-28T02:06:44;98309.16;;;-0.50;100.00
56182;BME280;51963;46.052;14.544;2023-01-28T02:09:30;98309.25;;;-0.52;100.00
56182;BME280;51963;46.052;14.544;2023-01-28T02:11:58;98309.03;;;-0.49;100.00
56182;BME280;51963;46.052;14.544;2023-01-28T02:14:26;98304.31;;;-0.55;100.00
56182;BME280;51963;46.052;14.544;2023-01-28T02:16:52;98302.53;;;-0.66;100.00
56182;BME280;51963;46.052;14.544;2023-01-28T02:19:18;98303.13;;;-0.62;100.00
56182;BME280;51963;46.052;14.544;2023-01-28T02:21:53;98306.44;;;-0.60;100.00
56182;BME280;51963;46.052;14.544;2023-01-28T02:27:28;98313.28;;;-0.59;100.00
56182;BME280;51963;46.052;14.544;2023-01-28T02:30:10;98314.22;;;-0.49;100.00
56182;BME280;51963;46.052;14.544;2023-01-28T02:32:52;98320.97;;;-0.46;100.00
56182;BME280;51963;46.052;14.544;2023-01-28T02:38:11;98328.84;;;-0.59;100.00
56182;BME280;51963;46.052;14.544;2023-01-28T02:40:41;98323.44;;;-0.56;100.00
56182;BME280;51963;46.052;14.544;2023-01-28T02:45:55;98314.44;;;-0.63;100.00
56182;BME280;51963;46.052;14.544;2023-01-28T02:48:39;98314.69;;;-0.66;100.00
56182;BME280;51963;46.052;14.544;2023-01-28T02:51:27;98315.53;;;-0.66;100.00
56182;BME280;51963;46.052;14.544;2023-01-28T02:53:58;98317.28;;;-0.66;100.00
56182;BME280;51963;46.052;14.544;2023-01-28T02:59:06;98311.03;;;-0.64;100.00
56182;BME280;51963;46.052;14.544;2023-01-28T03:01:59;98313.75;;;-0.65;100.00
56182;BME280;51963;46.052;14.544;2023-01-28T03:04:31;98311.50;;;-0.70;100.00
56182;BME280;51963;46.052;14.544;2023-01-28T03:07:01;98320.25;;;-0.71;100.00
56182;BME280;51963;46.052;14.544;2023-01-28T03:09:29;98315.28;;;-0.74;100.00
56182;BME280;51963;46.052;14.544;2023-01-28T03:14:39;98318.13;;;-0.66;100.00
56182;BME280;51963;46.052;14.544;2023-01-28T03:17:31;98326.25;;;-0.70;100.00
56182;BME280;51963;46.052;14.544;2023-01-28T03:20:18;98321.28;;;-0.74;100.00
56182;BME280;51963;46.052;14.544;2023-01-28T03:23:07;98326.25;;;-0.82;100.00
56182;BME280;51963;46.052;14.544;2023-01-28T03:25:52;98334.25;;;-0.85;100.00
56182;BME280;51963;46.052;14.544;2023-01-28T03:28:38;98326.94;;;-0.80;100.00
56182;BME280;51963;46.052;14.544;2023-01-28T03:31:23;98321.75;;;-0.80;100.00
56182;BME280;51963;46.052;14.544;2023-01-28T03:34:10;98326.72;;;-0.77;100.00
56182;BME280;51963;46.052;14.544;2023-01-28T03:36:55;98337.81;;;-0.75;100.00
56182;BME280;51963;46.052;14.544;2023-01-28T03:39:39;98333.56;;;-0.76;100.00
56182;BME280;51963;46.052;14.544;2023-01-28T03:42:09;98332.16;;;-0.80;100.00
56182;BME280;51963;46.052;14.544;2023-01-28T03:44:44;98339.69;;;-0.77;100.00
56182;BME280;51963;46.052;14.544;2023-01-28T03:47:24;98341.94;;;-0.83;100.00
56182;BME280;51963;46.052;14.544;2023-01-28T03:49:51;98332.38;;;-0.83;100.00
56182;BME280;51963;46.052;14.544;2023-01-28T03:52:22;98337.81;;;-0.86;100.00
56182;BME280;51963;46.052;14.544;2023-01-28T03:54:48;98335.19;;;-0.86;100.00
56182;BME280;51963;46.052;14.544;2023-01-28T03:57:15;98337.44;;;-0.93;100.00
56182;BME280;51963;46.052;14.544;2023-01-28T03:59:41;98340.38;;;-0.97;100.00
56182;BME280;51963;46.052;14.544;2023-01-28T04:02:07;98341.31;;;-0.98;100.00
56182;BME280;51963;46.052;14.544;2023-01-28T04:04:33;98345.56;;;-0.97;100.00
56182;BME280;51963;46.052;14.544;2023-01-28T04:06:58;98344.63;;;-0.96;100.00
56182;BME280;51963;46.052;14.544;2023-01-28T04:09:24;98341.44;;;-1.00;100.00
56182;BME280;51963;46.052;14.544;2023-01-28T04:12:03;98343.44;;;-1.04;100.00
56182;BME280;51963;46.052;14.544;2023-01-28T04:14:34;98338.47;;;-1.07;100.00
56182;BME280;51963;46.052;14.544;2023-01-28T04:17:07;98339.41;;;-1.08;100.00
56182;BME280;51963;46.052;14.544;2023-01-28T04:19:35;98332.94;;;-1.02;100.00
56182;BME280;51963;46.052;14.544;2023-01-28T04:22:06;98342.72;;;-1.06;100.00
56182;BME280;51963;46.052;14.544;2023-01-28T04:24:34;98344.28;;;-1.03;100.00
56182;BME280;51963;46.052;14.544;2023-01-28T04:27:00;98342.72;;;-1.06;100.00
56182;BME280;51963;46.052;14.544;2023-01-28T04:29:26;98348.97;;;-1.08;100.00
56182;BME280;51963;46.052;14.544;2023-01-28T04:31:55;98351.69;;;-0.98;100.00
56182;BME280;51963;46.052;14.544;2023-01-28T04:34:46;98350.72;;;-1.09;100.00
56182;BME280;51963;46.052;14.544;2023-01-28T04:37:22;98348.84;;;-1.07;100.00
56182;BME280;51963;46.052;14.544;2023-01-28T04:40:05;98354.97;;;-1.08;100.00
56182;BME280;51963;46.052;14.544;2023-01-28T04:42:52;98366.78;;;-1.04;100.00
56182;BME280;51963;46.052;14.544;2023-01-28T04:45:36;98360.56;;;-1.01;100.00
56182;BME280;51963;46.052;14.544;2023-01-28T04:48:18;98373.41;;;-0.99;100.00
56182;BME280;51963;46.052;14.544;2023-01-28T04:51:04;98367.97;;;-0.96;100.00
56182;BME280;51963;46.052;14.544;2023-01-28T04:53:36;98375.09;;;-0.76;100.00
56182;BME280;51963;46.052;14.544;2023-01-28T04:56:06;98377.94;;;-0.67;100.00
56182;BME280;51963;46.052;14.544;2023-01-28T04:58:34;98369.69;;;-0.72;100.00
56182;BME280;51963;46.052;14.544;2023-01-28T05:01:05;98379.47;;;-0.76;100.00
56182;BME280;51963;46.052;14.544;2023-01-28T05:03:31;98393.41;;;-0.77;100.00
56182;BME280;51963;46.052;14.544;2023-01-28T05:05:57;98389.03;;;-0.77;100.00
56182;BME280;51963;46.052;14.544;2023-01-28T05:08:34;98391.53;;;-0.75;100.00
56182;BME280;51963;46.052;14.544;2023-01-28T05:11:00;98394.22;;;-0.77;100.00
56182;BME280;51963;46.052;14.544;2023-01-28T05:13:25;98394.22;;;-0.77;100.00
56182;BME280;51963;46.052;14.544;2023-01-28T05:15:52;98398.13;;;-0.82;100.00
56182;BME280;51963;46.052;14.544;2023-01-28T05:18:19;98393.88;;;-0.83;100.00
56182;BME280;51963;46.052;14.544;2023-01-28T05:20:54;98400.94;;;-0.85;100.00
56182;BME280;51963;46.052;14.544;2023-01-28T05:23:20;98403.63;;;-0.87;100.00
56182;BME280;51963;46.052;14.544;2023-01-28T05:25:51;98407.19;;;-0.88;100.00
56182;BME280;51963;46.052;14.544;2023-01-28T05:28:17;98409.66;;;-0.86;100.00
56182;BME280;51963;46.052;14.544;2023-01-28T05:30:43;98401.03;;;-0.87;100.00
56182;BME280;51963;46.052;14.544;2023-01-28T05:33:08;98406.72;;;-0.82;100.00
56182;BME280;51963;46.052;14.544;2023-01-28T05:35:34;98400.50;;;-0.79;100.00
56182;BME280;51963;46.052;14.544;2023-01-28T05:38:01;98405.06;;;-0.83;100.00
56182;BME280;51963;46.052;14.544;2023-01-28T05:40:26;98414.72;;;-0.85;100.00
56182;BME280;51963;46.052;14.544;2023-01-28T05:42:52;98410.75;;;-0.78;100.00
56182;BME280;51963;46.052;14.544;2023-01-28T05:45:27;98416.53;;;-0.74;100.00
56182;BME280;51963;46.052;14.544;2023-01-28T05:48:09;98414.53;;;-0.70;100.00
56182;BME280;51963;46.052;14.544;2023-01-28T05:50:46;98422.34;;;-0.59;100.00
56182;BME280;51963;46.052;14.544;2023-01-28T05:53:20;98420.47;;;-0.46;100.00
56182;BME280;51963;46.052;14.544;2023-01-28T05:55:47;98424.25;;;-0.38;100.00
56182;BME280;51963;46.052;14.544;2023-01-28T05:58:13;98419.66;;;-0.57;100.00
56182;BME280;51963;46.052;14.544;2023-01-28T06:00:39;98433.13;;;-0.88;100.00
56182;BME280;51963;46.052;14.544;2023-01-28T06:03:04;98431.13;;;-0.96;100.00
56182;BME280;51963;46.052;14.544;2023-01-28T06:05:31;98433.59;;;-0.94;100.00
56182;BME280;51963;46.052;14.544;2023-01-28T06:07:59;98424.41;;;-0.87;100.00
56182;BME280;51963;46.052;14.544;2023-01-28T06:10:24;98427.25;;;-0.79;100.00
56182;BME280;51963;46.052;14.544;2023-01-28T06:12:50;98432.72;;;-0.59;100.00
56182;BME280;51963;46.052;14.544;2023-01-28T06:15:47;98439.94;;;-0.63;100.00
56182;BME280;51963;46.052;14.544;2023-01-28T06:18:42;98430.38;;;-0.51;100.00
56182;BME280;51963;46.052;14.544;2023-01-28T06:21:09;98433.03;;;-0.17;100.00
56182;BME280;51963;46.052;14.544;2023-01-28T06:23:35;98430.41;;;-0.05;100.00
56182;BME280;51963;46.052;14.544;2023-01-28T06:26:05;98427.84;;;0.06;100.00
56182;BME280;51963;46.052;14.544;2023-01-28T06:28:31;98434.56;;;-0.03;100.00
56182;BME280;51963;46.052;14.544;2023-01-28T06:30:57;98442.84;;;0.03;100.00
56182;BME280;51963;46.052;14.544;2023-01-28T06:33:22;98440.81;;;-0.17;100.00
56182;BME280;51963;46.052;14.544;2023-01-28T06:35:48;98438.72;;;0.00;100.00
56182;BME280;51963;46.052;14.544;2023-01-28T06:38:14;98451.78;;;-0.47;100.00
56182;BME280;51963;46.052;14.544;2023-01-28T06:40:39;98451.28;;;-0.52;100.00
56182;BME280;51963;46.052;14.544;2023-01-28T06:43:05;98457.50;;;-0.66;100.00
56182;BME280;51963;46.052;14.544;2023-01-28T06:45:31;98453.59;;;-0.72;100.00
56182;BME280;51963;46.052;14.544;2023-01-28T06:47:57;98459.31;;;-0.91;100.00
56182;BME280;51963;46.052;14.544;2023-01-28T06:50:22;98467.50;;;-0.84;100.00
56182;BME280;51963;46.052;14.544;2023-01-28T06:52:48;98470.00;;;-0.71;100.00
56182;BME280;51963;46.052;14.544;2023-01-28T06:55:14;98468.22;;;-0.82;100.00
56182;BME280;51963;46.052;14.544;2023-01-28T06:57:39;98469.25;;;-0.85;100.00
56182;BME280;51963;46.052;14.544;2023-01-28T07:00:06;98474.13;;;-0.80;100.00
56182;BME280;51963;46.052;14.544;2023-01-28T07:02:32;98475.16;;;-0.83;100.00
56182;BME280;51963;46.052;14.544;2023-01-28T07:04:58;98477.38;;;-0.54;100.00
56182;BME280;51963;46.052;14.544;2023-01-28T07:07:23;98479.00;;;-0.64;100.00
56182;BME280;51963;46.052;14.544;2023-01-28T07:09:49;98477.13;;;-0.51;100.00
56182;BME280;51963;46.052;14.544;2023-01-28T07:12:14;98488.94;;;-0.58;100.00
56182;BME280;51963;46.052;14.544;2023-01-28T07:14:40;98483.53;;;-0.43;100.00
56182;BME280;51963;46.052;14.544;2023-01-28T07:17:06;98484.03;;;-0.27;100.00
56182;BME280;51963;46.052;14.544;2023-01-28T07:19:31;98484.88;;;-0.26;100.00
56182;BME280;51963;46.052;14.544;2023-01-28T07:21:57;98481.22;;;-0.12;100.00
56182;BME280;51963;46.052;14.544;2023-01-28T07:24:25;98488.53;;;-0.18;100.00
56182;BME280;51963;46.052;14.544;2023-01-28T07:26:51;98483.72;;;-0.22;100.00
56182;BME280;51963;46.052;14.544;2023-01-28T07:29:16;98490.31;;;-0.30;100.00
56182;BME280;51963;46.052;14.544;2023-01-28T07:31:42;98502.13;;;-0.25;100.00
56182;BME280;51963;46.052;14.544;2023-01-28T07:34:07;98504.84;;;-0.04;100.00
56182;BME280;51963;46.052;14.544;2023-01-28T07:36:33;98501.81;;;0.13;100.00
56182;BME280;51963;46.052;14.544;2023-01-28T07:38:59;98510.09;;;0.19;100.00
56182;BME280;51963;46.052;14.544;2023-01-28T07:41:24;98508.91;;;0.11;100.00
56182;BME280;51963;46.052;14.544;2023-01-28T07:43:50;98508.28;;;-0.15;100.00
56182;BME280;51963;46.052;14.544;2023-01-28T07:46:15;98516.09;;;-0.15;100.00
56182;BME280;51963;46.052;14.544;2023-01-28T07:48:41;98514.69;;;0.15;100.00
56182;BME280;51963;46.052;14.544;2023-01-28T07:51:07;98514.84;;;0.25;100.00
56182;BME280;51963;46.052;14.544;2023-01-28T07:53:32;98510.91;;;0.42;100.00
56182;BME280;51963;46.052;14.544;2023-01-28T07:55:59;98513.97;;;0.47;100.00
56182;BME280;51963;46.052;14.544;2023-01-28T07:58:25;98514.91;;;0.57;100.00
56182;BME280;51963;46.052;14.544;2023-01-28T08:00:50;98514.34;;;0.54;100.00
56182;BME280;51963;46.052;14.544;2023-01-28T08:03:16;98509.22;;;0.64;100.00
56182;BME280;51963;46.052;14.544;2023-01-28T08:05:45;98508.97;;;0.67;100.00
56182;BME280;51963;46.052;14.544;2023-01-28T08:08:11;98515.75;;;0.69;100.00
56182;BME280;51963;46.052;14.544;2023-01-28T08:10:38;98515.50;;;0.61;100.00
56182;BME280;51963;46.052;14.544;2023-01-28T08:13:03;98515.97;;;0.66;100.00
56182;BME280;51963;46.052;14.544;2023-01-28T08:15:29;98515.03;;;0.67;100.00
56182;BME280;51963;46.052;14.544;2023-01-28T08:17:56;98516.72;;;0.57;100.00
56182;BME280;51963;46.052;14.544;2023-01-28T08:20:22;98529.47;;;0.71;100.00
56182;BME280;51963;46.052;14.544;2023-01-28T08:22:48;98529.94;;;0.77;100.00
56182;BME280;51963;46.052;14.544;2023-01-28T08:25:13;98532.53;;;0.65;100.00
56182;BME280;51963;46.052;14.544;2023-01-28T08:27:39;98542.94;;;0.77;100.00
56182;BME280;51963;46.052;14.544;2023-01-28T08:30:04;98535.69;;;0.80;100.00
56182;BME280;51963;46.052;14.544;2023-01-28T08:32:30;98533.22;;;0.79;100.00
56182;BME280;51963;46.052;14.544;2023-01-28T08:34:56;98534.41;;;0.86;100.00
56182;BME280;51963;46.052;14.544;2023-01-28T08:37:21;98528.50;;;0.84;100.00
56182;BME280;51963;46.052;14.544;2023-01-28T08:39:47;98541.50;;;0.84;100.00
56182;BME280;51963;46.052;14.544;2023-01-28T08:42:13;98542.38;;;0.39;100.00
56182;BME280;51963;46.052;14.544;2023-01-28T08:44:38;98543.53;;;0.12;100.00
56182;BME280;51963;46.052;14.544;2023-01-28T08:47:04;98549.47;;;-0.22;100.00
56182;BME280;51963;46.052;14.544;2023-01-28T08:49:29;98555.75;;;-0.24;100.00
56182;BME280;51963;46.052;14.544;2023-01-28T08:51:55;98552.56;;;-0.17;100.00
56182;BME280;51963;46.052;14.544;2023-01-28T08:54:21;98543.91;;;0.07;100.00
56182;BME280;51963;46.052;14.544;2023-01-28T08:56:46;98549.59;;;0.24;100.00
56182;BME280;51963;46.052;14.544;2023-01-28T08:59:13;98550.28;;;0.14;100.00
56182;BME280;51963;46.052;14.544;2023-01-28T09:01:39;98556.69;;;0.45;100.00
56182;BME280;51963;46.052;14.544;2023-01-28T09:04:04;98555.72;;;0.68;100.00
56182;BME280;51963;46.052;14.544;2023-01-28T09:06:30;98555.59;;;0.70;100.00
56182;BME280;51963;46.052;14.544;2023-01-28T09:08:56;98566.00;;;0.58;100.00
56182;BME280;51963;46.052;14.544;2023-01-28T09:11:22;98562.69;;;0.45;100.00
56182;BME280;51963;46.052;14.544;2023-01-28T09:13:48;98568.25;;;0.29;100.00
56182;BME280;51963;46.052;14.544;2023-01-28T09:16:13;98573.34;;;0.65;100.00
56182;BME280;51963;46.052;14.544;2023-01-28T09:18:39;98572.53;;;0.64;100.00
56182;BME280;51963;46.052;14.544;2023-01-28T09:21:05;98568.75;;;0.46;100.00
56182;BME280;51963;46.052;14.544;2023-01-28T09:23:35;98570.41;;;0.47;100.00
56182;BME280;51963;46.052;14.544;2023-01-28T09:26:01;98563.41;;;0.70;100.00
56182;BME280;51963;46.052;14.544;2023-01-28T09:28:27;98583.16;;;0.61;100.00
56182;BME280;51963;46.052;14.544;2023-01-28T09:31:01;98576.78;;;0.77;100.00
56182;BME280;51963;46.052;14.544;2023-01-28T09:33:27;98578.44;;;0.66;100.00
56182;BME280;51963;46.052;14.544;2023-01-28T09:35:52;98587.66;;;0.70;100.00
56182;BME280;51963;46.052;14.544;2023-01-28T09:38:18;98581.97;;;0.77;100.00
56182;BME280;51963;46.052;14.544;2023-01-28T09:40:43;98593.81;;;0.81;100.00
56182;BME280;51963;46.052;14.544;2023-01-28T09:43:24;98584.56;;;0.88;100.00
56182;BME280;51963;46.052;14.544;2023-01-28T09:45:54;98595.50;;;1.14;100.00
56182;BME280;51963;46.052;14.544;2023-01-28T09:48:23;98594.88;;;1.34;99.68
56182;BME280;51963;46.052;14.544;2023-01-28T09:50:55;98592.00;;;1.48;98.54
56182;BME280;51963;46.052;14.544;2023-01-28T09:53:28;98587.38;;;1.40;98.47
56182;BME280;51963;46.052;14.544;2023-01-28T09:56:02;98589.34;;;1.59;98.20
56182;BME280;51963;46.052;14.544;2023-01-28T09:58:29;98591.22;;;1.90;94.19
56182;BME280;51963;46.052;14.544;2023-01-28T10:03:44;98588.16;;;1.85;93.34
56182;BME280;51963;46.052;14.544;2023-01-28T10:06:18;98590.41;;;1.57;95.15
56182;BME280;51963;46.052;14.544;2023-01-28T10:13:48;98588.75;;;1.56;93.32
56182;BME280;51963;46.052;14.544;2023-01-28T10:18:57;98592.63;;;1.29;95.16
56182;BME280;51963;46.052;14.544;2023-01-28T10:21:27;98589.31;;;1.27;95.36
56182;BME280;51963;46.052;14.544;2023-01-28T10:26:21;98591.13;;;1.26;94.78
56182;BME280;51963;46.052;14.544;2023-01-28T10:28:48;98591.59;;;1.31;95.34
56182;BME280;51963;46.052;14.544;2023-01-28T10:31:16;98593.66;;;1.49;93.75
56182;BME280;51963;46.052;14.544;2023-01-28T10:33:42;98594.97;;;1.43;94.88
56182;BME280;51963;46.052;14.544;2023-01-28T10:36:08;98594.06;;;1.66;93.72
56182;BME280;51963;46.052;14.544;2023-01-28T10:38:33;98594.06;;;1.66;92.34
56182;BME280;51963;46.052;14.544;2023-01-28T10:41:00;98592.84;;;1.70;92.01
56182;BME280;51963;46.052;14.544;2023-01-28T10:43:28;98586.78;;;1.48;92.09
56182;BME280;51963;46.052;14.544;2023-01-28T10:46:06;98586.19;;;1.44;91.57
56182;BME280;51963;46.052;14.544;2023-01-28T10:48:41;98593.56;;;1.39;92.18
56182;BME280;51963;46.052;14.544;2023-01-28T10:51:08;98593.78;;;1.36;92.40
56182;BME280;51963;46.052;14.544;2023-01-28T10:53:35;98584.22;;;1.37;92.01
56182;BME280;51963;46.052;14.544;2023-01-28T10:56:02;98591.59;;;1.20;93.70
56182;BME280;51963;46.052;14.544;2023-01-28T10:58:28;98593.47;;;1.29;93.27
56182;BME280;51963;46.052;14.544;2023-01-28T11:00:59;98595.97;;;1.20;92.25
56182;BME280;51963;46.052;14.544;2023-01-28T11:03:25;98596.09;;;1.29;92.32
56182;BME280;51963;46.052;14.544;2023-01-28T11:05:55;98590.41;;;1.24;91.96
56182;BME280;51963;46.052;14.544;2023-01-28T11:08:21;98589.13;;;1.19;92.96
56182;BME280;51963;46.052;14.544;2023-01-28T11:10:47;98585.69;;;1.18;92.01
56182;BME280;51963;46.052;14.544;2023-01-28T11:13:20;98589.72;;;1.22;91.30
56182;BME280;51963;46.052;14.544;2023-01-28T11:15:54;98591.81;;;1.28;92.73
56182;BME280;51963;46.052;14.544;2023-01-28T11:18:26;98585.16;;;1.36;91.82
56182;BME280;51963;46.052;14.544;2023-01-28T11:20:53;98593.22;;;1.33;91.01
56182;BME280;51963;46.052;14.544;2023-01-28T11:23:25;98592.06;;;1.25;90.96
56182;BME280;51963;46.052;14.544;2023-01-28T11:25:58;98587.34;;;1.19;92.21
56182;BME280;51963;46.052;14.544;2023-01-28T11:28:25;98592.06;;;1.25;91.64
56182;BME280;51963;46.052;14.544;2023-01-28T11:30:51;98581.78;;;1.12;92.60
56182;BME280;51963;46.052;14.544;2023-01-28T11:33:21;98584.59;;;1.21;93.58
56182;BME280;51963;46.052;14.544;2023-01-28T11:35:52;98577.38;;;1.24;92.91
56182;BME280;51963;46.052;14.544;2023-01-28T11:38:19;98579.50;;;1.30;92.76
56182;BME280;51963;46.052;14.544;2023-01-28T11:40:48;98576.75;;;1.32;92.13
56182;BME280;51963;46.052;14.544;2023-01-28T11:43:15;98578.19;;;1.25;91.88
56182;BME280;51963;46.052;14.544;2023-01-28T11:50:59;98569.72;;;1.11;91.36
56182;BME280;51963;46.052;14.544;2023-01-28T11:56:08;98568.91;;;1.11;93.19
56182;BME280;51963;46.052;14.544;2023-01-28T12:01:12;98567.97;;;1.00;93.05
56182;BME280;51963;46.052;14.544;2023-01-28T12:06:20;98568.47;;;0.83;94.56
56182;BME280;51963;46.052;14.544;2023-01-28T12:08:53;98573.31;;;0.87;94.91
56182;BME280;51963;46.052;14.544;2023-01-28T12:14:59;98565.22;;;1.13;93.52
56182;BME280;51963;46.052;14.544;2023-01-28T12:16:58;98565.59;;;1.09;94.32
56182;BME280;51963;46.052;14.544;2023-01-28T12:19:36;98556.84;;;1.10;92.83
56182;BME280;51963;46.052;14.544;2023-01-28T12:22:15;98559.44;;;1.10;93.40
56182;BME280;51963;46.052;14.544;2023-01-28T12:30:38;98557.56;;;1.00;93.03
56182;BME280;51963;46.052;14.544;2023-01-28T12:35:49;98557.81;;;0.97;94.31
56182;BME280;51963;46.052;14.544;2023-01-28T12:43:24;98547.28;;;0.87;96.07
56182;BME280;51963;46.052;14.544;2023-01-28T12:45:55;98544.56;;;0.89;96.22
56182;BME280;51963;46.052;14.544;2023-01-28T12:48:45;98544.91;;;0.96;95.92
56182;BME280;51963;46.052;14.544;2023-01-28T12:51:13;98548.56;;;1.05;95.98
56182;BME280;51963;46.052;14.544;2023-01-28T12:57:09;98550.69;;;1.11;93.97
56182;BME280;51963;46.052;14.544;2023-01-28T12:59:11;98553.38;;;1.09;93.81
56182;BME280;51963;46.052;14.544;2023-01-28T13:01:45;98549.38;;;1.05;93.44
56182;BME280;51963;46.052;14.544;2023-01-28T13:04:17;98551.03;;;1.06;93.61
56182;BME280;51963;46.052;14.544;2023-01-28T13:06:49;98545.97;;;1.05;93.73
56182;BME280;51963;46.052;14.544;2023-01-28T13:09:18;98554.56;;;1.05;93.94
56182;BME280;51963;46.052;14.544;2023-01-28T13:11:44;98550.44;;;1.14;93.91
56182;BME280;51963;46.052;14.544;2023-01-28T13:14:11;98555.25;;;1.19;92.02
56182;BME280;51963;46.052;14.544;2023-01-28T13:16:37;98553.50;;;1.19;93.23
56182;BME280;51963;46.052;14.544;2023-01-28T13:19:24;98558.91;;;1.27;93.20
56182;BME280;51963;46.052;14.544;2023-01-28T13:21:48;98567.28;;;1.31;92.83
56182;BME280;51963;46.052;14.544;2023-01-28T13:29:16;98573.06;;;1.46;91.13
56182;BME280;51963;46.052;14.544;2023-01-28T13:31:46;98574.81;;;1.45;91.76
56182;BME280;51963;46.052;14.544;2023-01-28T13:37:01;98576.94;;;1.52;91.07
56182;BME280;51963;46.052;14.544;2023-01-28T13:39:28;98580.16;;;1.44;92.58
56182;BME280;51963;46.052;14.544;2023-01-28T13:42:18;98581.31;;;1.51;90.92
56182;BME280;51963;46.052;14.544;2023-01-28T13:44:45;98577.84;;;1.62;88.89
56182;BME280;51963;46.052;14.544;2023-01-28T13:47:12;98577.03;;;1.61;88.59
56182;BME280;51963;46.052;14.544;2023-01-28T13:49:55;98572.13;;;1.68;88.56
56182;BME280;51963;46.052;14.544;2023-01-28T13:52:26;98578.59;;;1.53;89.19
56182;BME280;51963;46.052;14.544;2023-01-28T13:55:12;98580.56;;;1.60;89.20
56182;BME280;51963;46.052;14.544;2023-01-28T14:10:26;98589.81;;;1.65;87.00
56182;BME280;51963;46.052;14.544;2023-01-28T14:12:59;98591.47;;;1.66;87.50
56182;BME280;51963;46.052;14.544;2023-01-28T14:15:36;98593.56;;;1.72;86.18
56182;BME280;51963;46.052;14.544;2023-01-28T14:18:14;98596.53;;;1.67;86.36
56182;BME280;51963;46.052;14.544;2023-01-28T14:20:44;98598.81;;;1.60;85.90
56182;BME280;51963;46.052;14.544;2023-01-28T14:23:14;98608.09;;;1.53;85.35